Time,TemperatureF,DewpointF,PressureIn,WindDirection,WindDirectionDegrees,WindSpeedMPH,WindSpeedGustMPH,Humidity,HourlyPrecipIn,Conditions,Clouds,dailyrainin,SoftwareType,DateUTC
2014-01-02 00:04:00,34.2,29.6,29.95,WNW,292,0.0,-999.0,83,-99.99,,,0.00,Acu-Link.com,2014-01-02 05:04:00,
2014-01-02 00:19:00,34.7,29.2,29.95,ESE,112,0.0,-999.0,80,-99.99,,,0.00,Acu-Link.com,2014-01-02 05:19:00,
2014-01-02 00:34:00,34.9,29.7,29.94,NW,315,2.7,-999.0,81,-99.99,,,0.00,Acu-Link.com,2014-01-02 05:34:00,
2014-01-02 00:50:00,34.7,29.2,29.93,WSW,247,0.0,-999.0,80,-99.99,,,0.00,Acu-Link.com,2014-01-02 05:50:00,
2014-01-02 01:05:00,35.1,28.9,29.92,SSE,157,0.0,-999.0,78,-99.99,,,0.00,Acu-Link.com,2014-01-02 06:05:00,
2014-01-02 01:20:00,35.1,28.9,29.91,WNW,292,0.0,-999.0,78,-99.99,,,0.00,Acu-Link.com,2014-01-02 06:20:00,
2014-01-02 01:36:00,34.9,29.1,29.91,West,270,0.0,-999.0,79,-99.99,,,0.00,Acu-Link.com,2014-01-02 06:36:00,
2014-01-02 01:51:00,35.1,29.9,29.90,North,0,0.0,-999.0,81,-99.99,,,0.00,Acu-Link.com,2014-01-02 06:51:00,
2014-01-02 02:06:00,34.9,29.4,29.91,NW,315,0.0,-999.0,80,-99.99,,,0.00,Acu-Link.com,2014-01-02 07:06:00,
2014-01-02 02:21:00,35.1,29.6,29.90,West,270,0.0,-999.0,80,-99.99,,,0.00,Acu-Link.com,2014-01-02 07:21:00,
2014-01-02 02:37:00,35.2,30.0,29.90,West,270,0.0,-999.0,81,-99.99,,,0.00,Acu-Link.com,2014-01-02 07:37:00,
2014-01-02 02:52:00,35.1,29.3,29.89,West,270,0.0,-999.0,79,-99.99,,,0.00,Acu-Link.com,2014-01-02 07:52:00,
2014-01-02 03:07:00,35.2,29.0,29.88,WNW,292,2.2,-999.0,78,-99.99,,,0.00,Acu-Link.com,2014-01-02 08:07:00,
2014-01-02 03:22:00,35.4,29.2,29.87,West,270,0.0,-999.0,78,-99.99,,,0.00,Acu-Link.com,2014-01-02 08:22:00,
2014-01-02 03:37:00,35.6,29.4,29.86,NW,315,0.0,-999.0,78,-99.99,,,0.00,Acu-Link.com,2014-01-02 08:37:00,
2014-01-02 03:53:00,36.0,29.2,29.85,SE,135,0.0,-999.0,76,-99.99,,,0.00,Acu-Link.com,2014-01-02 08:53:00,
2014-01-02 04:08:00,36.0,29.8,29.84,SSW,202,0.0,-999.0,78,-99.99,,,0.00,Acu-Link.com,2014-01-02 09:08:00,
2014-01-02 04:23:00,36.0,29.8,29.84,NW,315,2.2,-999.0,78,-99.99,,,0.00,Acu-Link.com,2014-01-02 09:23:00,
2014-01-02 04:39:00,36.0,29.8,29.83,WSW,247,0.0,-999.0,78,-99.99,,,0.00,Acu-Link.com,2014-01-02 09:39:00,
2014-01-02 04:54:00,36.0,30.4,29.81,West,270,0.0,-999.0,80,-99.99,,,0.00,Acu-Link.com,2014-01-02 09:54:00,
2014-01-02 05:09:00,36.0,30.1,29.81,West,270,0.0,-999.0,79,-99.99,,,0.00,Acu-Link.com,2014-01-02 10:09:00,
2014-01-02 05:24:00,36.1,30.5,29.80,ENE,67,0.0,-999.0,80,-99.99,,,0.00,Acu-Link.com,2014-01-02 10:24:00,
2014-01-02 05:40:00,36.0,31.9,29.79,SSW,202,0.0,-999.0,85,-99.99,,,0.00,Acu-Link.com,2014-01-02 10:40:00,
2014-01-02 05:55:00,35.8,31.4,29.79,WSW,247,0.0,-999.0,84,-99.99,,,0.00,Acu-Link.com,2014-01-02 10:55:00,
2014-01-02 06:10:00,36.0,31.3,29.80,SW,225,0.0,-999.0,83,-99.99,,,0.00,Acu-Link.com,2014-01-02 11:10:00,
2014-01-02 06:26:00,36.0,32.5,29.77,SSW,202,0.0,-999.0,87,-99.99,,,0.00,Acu-Link.com,2014-01-02 11:26:00,
2014-01-02 06:41:00,35.6,32.4,29.76,North,0,0.0,-999.0,88,-99.99,,,0.00,Acu-Link.com,2014-01-02 11:41:00,
2014-01-02 06:57:00,35.6,33.0,29.75,WNW,292,0.0,-999.0,90,-99.99,,,0.00,Acu-Link.com,2014-01-02 11:57:00,
2014-01-02 07:12:00,35.6,33.2,29.74,SSE,157,1.1,-999.0,91,-99.99,,,0.00,Acu-Link.com,2014-01-02 12:12:00,
2014-01-02 07:27:00,35.4,33.8,29.75,NNW,337,0.0,-999.0,94,-99.99,,,0.00,Acu-Link.com,2014-01-02 12:27:00,
2014-01-02 07:43:00,35.1,34.3,29.75,NNE,22,0.0,-999.0,97,-99.99,,,0.02,Acu-Link.com,2014-01-02 12:43:00,
2014-01-02 07:58:00,34.9,34.6,29.74,South,180,0.0,-999.0,99,-99.99,,,0.04,Acu-Link.com,2014-01-02 12:58:00,
2014-01-02 08:13:00,35.1,34.8,29.74,ESE,112,0.0,-999.0,99,-99.99,,,0.08,Acu-Link.com,2014-01-02 13:13:00,
2014-01-02 08:28:00,35.1,34.8,29.73,South,180,0.0,-999.0,99,-99.99,,,0.09,Acu-Link.com,2014-01-02 13:28:00,
2014-01-02 08:44:00,35.1,34.8,29.73,WSW,247,0.0,-999.0,99,-99.99,,,0.10,Acu-Link.com,2014-01-02 13:44:00,
2014-01-02 08:59:00,35.1,34.8,29.73,South,180,0.0,-999.0,99,-99.99,,,0.10,Acu-Link.com,2014-01-02 13:59:00,
2014-01-02 09:14:00,35.2,34.9,29.73,NE,45,0.0,-999.0,99,-99.99,,,0.11,Acu-Link.com,2014-01-02 14:14:00,
2014-01-02 09:29:00,35.2,34.9,29.72,WNW,292,0.0,-999.0,99,-99.99,,,0.11,Acu-Link.com,2014-01-02 14:29:00,
2014-01-02 09:45:00,35.4,35.1,29.72,SE,135,0.0,-999.0,99,-99.99,,,0.12,Acu-Link.com,2014-01-02 14:45:00,
2014-01-02 10:00:00,36.0,35.7,29.72,North,0,0.0,-999.0,99,-99.99,,,0.15,Acu-Link.com,2014-01-02 15:00:00,
2014-01-02 10:15:00,36.0,35.7,29.70,North,0,0.0,-999.0,99,-99.99,,,0.17,Acu-Link.com,2014-01-02 15:15:00,
2014-01-02 10:30:00,36.3,36.0,29.69,WNW,292,0.0,-999.0,99,-99.99,,,0.18,Acu-Link.com,2014-01-02 15:30:00,
2014-01-02 10:46:00,36.3,36.0,29.69,WNW,292,0.0,-999.0,99,-99.99,,,0.19,Acu-Link.com,2014-01-02 15:46:00,
2014-01-02 11:01:00,36.3,36.0,29.68,SSW,202,0.0,-999.0,99,-99.99,,,0.20,Acu-Link.com,2014-01-02 16:01:00,
2014-01-02 11:16:00,36.7,36.4,29.66,West,270,0.0,-999.0,99,-99.99,,,0.21,Acu-Link.com,2014-01-02 16:16:00,
2014-01-02 11:31:00,36.7,36.4,29.65,NW,315,0.0,-999.0,99,-99.99,,,0.21,Acu-Link.com,2014-01-02 16:31:00,
2014-01-02 11:47:00,36.9,36.6,29.63,SSW,202,0.0,-999.0,99,-99.99,,,0.22,Acu-Link.com,2014-01-02 16:47:00,
2014-01-02 12:02:00,37.0,36.7,29.62,South,180,0.0,-999.0,99,-99.99,,,0.22,Acu-Link.com,2014-01-02 17:02:00,
2014-01-02 12:17:00,37.0,36.7,29.61,West,270,0.0,-999.0,99,-99.99,,,0.23,Acu-Link.com,2014-01-02 17:17:00,
2014-01-02 12:33:00,37.0,36.7,29.59,NE,45,0.0,-999.0,99,-99.99,,,0.23,Acu-Link.com,2014-01-02 17:33:00,
2014-01-02 12:48:00,37.2,36.9,29.58,SSW,202,0.0,-999.0,99,-99.99,,,0.24,Acu-Link.com,2014-01-02 17:48:00,
2014-01-02 13:03:00,37.8,37.5,29.59,SW,225,0.0,-999.0,99,-99.99,,,0.25,Acu-Link.com,2014-01-02 18:03:00,
2014-01-02 13:19:00,38.1,37.8,29.59,SSE,157,0.0,-999.0,99,-99.99,,,0.28,Acu-Link.com,2014-01-02 18:19:00,
2014-01-02 13:34:00,38.7,38.4,29.58,SSW,202,0.0,-999.0,99,-99.99,,,0.29,Acu-Link.com,2014-01-02 18:34:00,
2014-01-02 13:49:00,38.8,38.5,29.58,East,90,0.0,-999.0,99,-99.99,,,0.30,Acu-Link.com,2014-01-02 18:49:00,
2014-01-02 14:05:00,39.0,38.7,29.58,West,270,0.0,-999.0,99,-99.99,,,0.32,Acu-Link.com,2014-01-02 19:05:00,
2014-01-02 14:20:00,39.6,39.3,29.58,ENE,67,0.0,-999.0,99,-99.99,,,0.33,Acu-Link.com,2014-01-02 19:20:00,
2014-01-02 14:35:00,39.9,39.6,29.59,SSW,202,0.0,-999.0,99,-99.99,,,0.35,Acu-Link.com,2014-01-02 19:35:00,
2014-01-02 14:51:00,39.7,39.4,29.60,SSE,157,0.0,-999.0,99,-99.99,,,0.38,Acu-Link.com,2014-01-02 19:51:00,
2014-01-02 15:06:00,39.4,39.1,29.61,West,270,0.0,-999.0,99,-99.99,,,0.43,Acu-Link.com,2014-01-02 20:06:00,
2014-01-02 15:21:00,39.0,38.7,29.62,SSE,157,0.0,-999.0,99,-99.99,,,0.45,Acu-Link.com,2014-01-02 20:21:00,
2014-01-02 15:36:00,37.9,37.6,29.63,NE,45,0.0,-999.0,99,-99.99,,,0.47,Acu-Link.com,2014-01-02 20:36:00,
2014-01-02 15:52:00,37.2,36.9,29.65,SSE,157,0.0,-999.0,99,-99.99,,,0.49,Acu-Link.com,2014-01-02 20:52:00,
2014-01-02 16:07:00,36.5,36.2,29.65,SSE,157,0.0,-999.0,99,-99.99,,,0.51,Acu-Link.com,2014-01-02 21:07:00,
2014-01-02 16:22:00,35.6,35.3,29.65,South,180,0.0,-999.0,99,-99.99,,,0.55,Acu-Link.com,2014-01-02 21:22:00,
2014-01-02 16:38:00,35.2,34.9,29.65,South,180,0.0,-999.0,99,-99.99,,,0.56,Acu-Link.com,2014-01-02 21:38:00,
2014-01-02 16:53:00,34.9,34.6,29.67,SSE,157,0.0,-999.0,99,-99.99,,,0.57,Acu-Link.com,2014-01-02 21:53:00,
2014-01-02 17:08:00,33.8,33.5,29.68,NE,45,0.0,-999.0,99,-99.99,,,0.57,Acu-Link.com,2014-01-02 22:08:00,
2014-01-02 17:24:00,33.1,32.8,29.69,SSW,202,0.0,-999.0,99,-99.99,,,0.57,Acu-Link.com,2014-01-02 22:24:00,
2014-01-02 17:39:00,32.4,32.2,29.68,SSE,157,0.0,-999.0,99,-99.99,,,0.57,Acu-Link.com,2014-01-02 22:39:00,
2014-01-02 17:54:00,31.3,30.5,29.70,NE,45,0.0,-999.0,97,-99.99,,,0.57,Acu-Link.com,2014-01-02 22:54:00,
2014-01-02 18:10:00,30.6,30.1,29.70,SSE,157,0.0,-999.0,98,-99.99,,,0.57,Acu-Link.com,2014-01-02 23:10:00,
2014-01-02 18:25:00,30.0,29.5,29.72,SSE,157,0.0,-999.0,98,-99.99,,,0.57,Acu-Link.com,2014-01-02 23:25:00,
2014-01-02 18:40:00,29.3,28.8,29.74,SSW,202,0.0,-999.0,98,-99.99,,,0.57,Acu-Link.com,2014-01-02 23:40:00,
2014-01-02 18:55:00,27.7,25.9,29.75,North,0,0.0,-999.0,93,-99.99,,,0.57,Acu-Link.com,2014-01-02 23:55:00,
2014-01-02 19:11:00,27.0,25.0,29.76,East,90,0.0,-999.0,92,-99.99,,,0.57,Acu-Link.com,2014-01-03 00:11:00,
2014-01-02 19:26:00,25.7,24.0,29.78,South,180,0.0,-999.0,93,-99.99,,,0.57,Acu-Link.com,2014-01-03 00:26:00,
2014-01-02 19:42:00,24.8,23.3,29.79,South,180,0.0,-999.0,94,-99.99,,,0.57,Acu-Link.com,2014-01-03 00:42:00,
2014-01-02 19:57:00,23.9,23.2,29.81,South,180,0.0,-999.0,97,-99.99,,,0.57,Acu-Link.com,2014-01-03 00:57:00,
2014-01-02 20:12:00,22.8,20.6,29.81,South,180,3.7,-999.0,91,-99.99,,,0.57,Acu-Link.com,2014-01-03 01:12:00,
2014-01-02 20:27:00,22.5,19.5,29.82,SW,225,0.0,-999.0,88,-99.99,,,0.57,Acu-Link.com,2014-01-03 01:27:00,
2014-01-02 20:42:00,22.3,19.0,29.83,South,180,0.0,-999.0,87,-99.99,,,0.57,Acu-Link.com,2014-01-03 01:42:00,
2014-01-02 20:58:00,21.6,19.1,29.83,SSE,157,1.1,-999.0,90,-99.99,,,0.57,Acu-Link.com,2014-01-03 01:58:00,
2014-01-02 21:14:00,21.0,20.0,29.84,ESE,112,0.0,-999.0,96,-99.99,,,0.57,Acu-Link.com,2014-01-03 02:14:00,
2014-01-02 21:29:00,20.7,19.7,29.83,ESE,112,0.0,-999.0,96,-99.99,,,0.57,Acu-Link.com,2014-01-03 02:29:00,
2014-01-02 21:44:00,20.1,19.1,29.85,SSW,202,0.0,-999.0,96,-99.99,,,0.57,Acu-Link.com,2014-01-03 02:44:00,
2014-01-02 21:59:00,19.2,17.0,29.86,SSW,202,0.0,-999.0,91,-99.99,,,0.57,Acu-Link.com,2014-01-03 02:59:00,
2014-01-02 22:15:00,18.9,16.7,29.86,SW,225,0.0,-999.0,91,-99.99,,,0.57,Acu-Link.com,2014-01-03 03:15:00,
2014-01-02 22:30:00,18.7,16.3,29.86,SSE,157,0.0,-999.0,90,-99.99,,,0.57,Acu-Link.com,2014-01-03 03:30:00,
2014-01-02 22:45:00,18.3,15.4,29.87,South,180,0.0,-999.0,88,-99.99,,,0.57,Acu-Link.com,2014-01-03 03:45:00,
2014-01-02 23:01:00,18.0,14.0,29.88,SSW,202,0.0,-999.0,84,-99.99,,,0.57,Acu-Link.com,2014-01-03 04:01:00,
2014-01-02 23:16:00,18.0,14.8,29.89,SSW,202,0.0,-999.0,87,-99.99,,,0.57,Acu-Link.com,2014-01-03 04:16:00,
2014-01-02 23:31:00,17.6,15.4,29.89,SSE,157,0.0,-999.0,91,-99.99,,,0.57,Acu-Link.com,2014-01-03 04:31:00,
2014-01-02 23:46:00,17.2,15.5,29.90,South,180,0.0,-999.0,93,-99.99,,,0.57,Acu-Link.com,2014-01-03 04:46:00,